Weather observations for the past three days for
Kuparuk, Ugnu-Kuparuk Airport
Metric (Imperial)
Date Time (akdt) Wind (kph) Vis. (km) Weather Sky Cond. Temperature (ºC) Relative Humidity Wind Chill (°C) Heat Index (°C) Pressure Precipitation (cm)
Air Dwpt 6 hour altimeter (cm) sea level (mb) 1 hr 3 hr 6 hr
Max. Min.
10 09:45 NE 41 2.41 Blowing Snow and Breezy SKC -13 -15 85% -24 76 0.0
10 08:45 NE 41 2.41 Blowing Snow and Breezy SKC -14 -16 85% -25 75.97 0.0
10 07:45 NE 37 1.61 Blowing Snow and Breezy FEW003 -14 -16 85% -25 76 0.0
10 06:45 NE 35 2.41 Blowing Snow and Breezy FEW003 FEW050 -15 -16 92% -26 76 0.0
10 05:45 NE 35 6.44 Blowing Snow and Breezy FEW050 -14 -16 85% -25 76 0.0
10 04:45 NE 35 6.44 Blowing Snow and Breezy FEW050 -14 -15 92% -25 76 0.0
10 03:45 NE 37 6.44 Blowing Snow and Breezy FEW050 -13 -15 85% -24 76 0.0
09 18:45 NE 39 4.83 Blowing Snow Fog/Mist and Breezy OVC008 -7 -7 100% -16 76.07 0.0
09 17:45 NE 41 6.44 Blowing Snow Fog/Mist and Breezy OVC008 -7 -8 93% -16 76.07 0.0
09 16:45 NE 37 11.27 Blowing Snow and Breezy OVC008 -6 -7 93% -15 76.1 0.0
09 15:45 NE 41 11.27 Blowing Snow and Breezy OVC009 -6 -7 93% -15 76.12 0.0
09 14:45 NE 41 4.83 Blowing Snow and Breezy OVC008 -7 -8 93% -16 76.12 0.0
09 13:45 NE 44 6.44 Blowing Snow and Windy BKN009 OVC033 -7 -8 93% -17 76.15 0.0
09 12:45 NE 41 4.83 Blowing Snow and Breezy OVC007 -8 -9 93% -18 76.2 0.0
09 11:45 NE 41 8.05 Low Drifting Snow and Breezy BKN008 OVC034 -8 -9 93% -18 76.2 0.0
09 10:45 NE 35 11.27 Low Drifting Snow and Breezy BKN009 OVC035 -8 -10 86% -17 76.25 0.0
09 09:45 NE 33 4.83 Low Drifting Snow Fog/Mist and Breezy OVC008 -9 -10 93% -18 76.28 0.0
09 08:45 NE 31 1.61 Light Freezing Rain Fog/Mist OVC006 -9 -10 93% -18 76.28 0.0
09 07:45 NE 26 11.27 Light Snow BKN007 -9 -10 93% -17 76.3 0.0
09 06:45 NE 20 11.27 Light Snow BKN011 -9 -11 86% -16 76.35 0.0
09 05:45 NE 19 11.27 Light Snow BKN011 -10 -11 92% -17 76.38 0.0
09 04:45 NE 17 11.27 Light Snow BKN015 -9 -11 86% -15 76.4 0.0
09 03:45 E 22 11.27 Light Snow BKN018 -9 -11 86% -16 76.43 0.0
08 18:45 NE 19 11.27 Light Snow BKN009 OVC027 -8 -10 86% -15 76.56 0.0
08 17:45 E 17 16.09 Light Snow BKN009 OVC026 -8 -10 86% -14 76.56 0.0
08 16:45 E 19 16.09 Overcast BKN008 OVC023 -8 -10 86% -15 76.58 0.0
08 15:45 NE 17 16.09 Mostly Cloudy SCT008 BKN022 -8 -10 86% -14 76.61 0.0
08 14:45 NE 15 16.09 Mostly Cloudy SCT008 BKN023 -8 -10 86% -14 76.61 0.0
08 13:45 NE 13 16.09 Mostly Cloudy BKN008 -8 -10 86% -13 76.63 0.0
08 12:45 NE 15 16.09 Mostly Cloudy SCT007 BKN060 -8 -10 86% -14 76.66 0.0
08 11:45 NE 11 16.09 Mostly Cloudy SCT SCT050 BKN070 -8 -9 93% -13 76.66 0.0
08 10:45 NE 11 16.09 Mostly Cloudy SCT029 SCT065 BKN090 -8 -9 93% -13 76.68 0.0
08 09:45 NE 9 11.27 Mostly Cloudy SCT009 BKN050 BKN110 -8 -9 93% -12 76.68 0.0
08 08:45 NE 9 11.27 Light Snow BKN005 -8 -9 93% -12 76.71 0.0
08 07:45 NW 9 11.27 Mostly Cloudy BKN005 -8 -9 93% -12 76.73 0.0
08 06:45 NW 7 11.27 Light Snow BKN008 -8 -9 93% -11 76.76 0.0
08 05:45 NW 6 4.83 Light Snow Fog/Mist OVC004 -8 -9 93% 76.78 0.0
08 04:45 W 9 3.22 Light Snow Fog/Mist OVC003 -8 -8 100% -12 76.78 0.0
08 03:45 W 11 4.83 Fog/Mist OVC003 -8 -8 100% -13 76.78 0.0
07 18:45 W 6 16.09 Overcast OVC009 -7 -9 86% 76.86 0.0
07 17:45 W 7 16.09 Overcast OVC008 -7 -9 86% -10 76.86 0.0
07 16:45 W 7 16.09 Overcast OVC009 -7 -9 86% -10 76.86 0.0
07 15:45 W 13 16.09 Overcast OVC009 -7 -9 86% -12 76.86 0.0
07 14:45 W 15 16.09 Overcast OVC009 -7 -9 86% -12 76.84 0.0
07 13:45 W 13 16.09 Overcast OVC007 -7 -9 86% -12 76.81 0.0
07 12:45 W 15 16.09 Overcast OVC007 -8 -9 93% -14 76.81 0.0
07 11:45 NW 11 16.09 Overcast OVC006 -8 -10 86% -13 76.78 0.0
07 10:45 W 17 16.09 Overcast OVC005 -8 -9 93% -14 76.76 0.0
Date Time (akdt) Wind (kph) Vis. (km) Weather Sky Cond. Air Dwpt Max. Min. Relative Humidity Wind Chill (°C) Heat Index (°C) altimeter (cm) sea level (mb) 1 hr 3 hr 6 hr
6 hour
Temperature (ºC) Pressure Precipitation (cm)